createdAt,value
2023-07-09T00:00:11.380Z,5.47
2023-07-09T00:02:38.065Z,5.10
2023-07-09T00:05:05.617Z,5.73
2023-07-09T00:07:34.532Z,5.43
2023-07-09T00:10:01.646Z,5.77
2023-07-09T00:12:28.571Z,5.30
2023-07-09T00:14:55.436Z,5.30
2023-07-09T00:17:28.468Z,5.57
2023-07-09T00:19:55.244Z,5.33
2023-07-09T00:22:22.350Z,5.27
2023-07-09T00:24:52.197Z,4.83
2023-07-09T00:27:20.977Z,5.30
2023-07-09T00:29:47.702Z,4.73
2023-07-09T00:32:15.369Z,5.50
2023-07-09T00:34:42.652Z,5.60
2023-07-09T00:37:12.444Z,5.80
2023-07-09T00:39:39.190Z,5.87
2023-07-09T00:42:14.849Z,5.60
2023-07-09T00:44:41.609Z,5.80
2023-07-09T00:47:22.022Z,5.40
2023-07-09T00:49:49.171Z,6.10
2023-07-09T00:52:24.885Z,5.43
2023-07-09T00:54:53.856Z,6.10
2023-07-09T00:57:25.500Z,5.80
2023-07-09T00:59:56.698Z,5.23
2023-07-09T01:02:24.030Z,5.53
2023-07-09T01:04:51.790Z,5.80
2023-07-09T01:07:18.803Z,5.53
2023-07-09T01:09:45.517Z,5.40
2023-07-09T01:12:12.901Z,6.10
2023-07-09T01:14:40.979Z,6.00
2023-07-09T01:17:10.230Z,4.97
2023-07-09T01:19:39.296Z,4.67
2023-07-09T01:22:07.489Z,5.13
2023-07-09T01:24:56.434Z,5.70
2023-07-09T01:27:25.109Z,5.60
2023-07-09T01:29:51.841Z,6.13
2023-07-09T01:32:20.375Z,5.60
2023-07-09T01:34:48.024Z,6.17
2023-07-09T01:37:18.585Z,6.57
2023-07-09T01:39:45.747Z,6.43
2023-07-09T01:42:12.509Z,5.70
2023-07-09T01:44:39.460Z,5.77
2023-07-09T01:47:06.856Z,5.37
2023-07-09T01:49:33.802Z,6.30
2023-07-09T01:52:02.031Z,5.87
2023-07-09T01:54:31.667Z,5.97
2023-07-09T01:57:15.768Z,6.07
2023-07-09T01:59:43.053Z,5.40
2023-07-09T02:02:09.914Z,6.23
2023-07-09T02:04:36.675Z,5.90
2023-07-09T02:07:03.499Z,5.63
2023-07-09T02:09:31.554Z,6.47
2023-07-09T02:11:58.318Z,6.43
2023-07-09T02:14:25.045Z,6.70
2023-07-09T02:16:51.865Z,6.50
2023-07-09T02:19:18.696Z,6.80
2023-07-09T02:21:45.371Z,6.20
2023-07-09T02:24:12.222Z,6.20
2023-07-09T02:26:40.302Z,7.00
2023-07-09T02:29:07.553Z,7.20
2023-07-09T02:31:34.595Z,6.30
2023-07-09T02:34:01.442Z,6.33
2023-07-09T02:36:28.230Z,5.57
2023-07-09T02:38:54.958Z,5.90
2023-07-09T02:41:21.650Z,7.33
2023-07-09T02:43:49.694Z,7.33
2023-07-09T02:46:16.409Z,7.43
2023-07-09T02:48:43.142Z,6.80
2023-07-09T02:51:09.880Z,6.10
2023-07-09T02:53:36.649Z,7.50
2023-07-09T02:56:03.838Z,6.37
2023-07-09T02:58:30.709Z,6.30
2023-07-09T03:00:58.852Z,6.90
2023-07-09T03:03:26.005Z,7.83
2023-07-09T03:05:52.872Z,5.87
2023-07-09T03:08:19.562Z,7.10
2023-07-09T03:10:46.437Z,7.40
2023-07-09T03:13:13.168Z,7.87
2023-07-09T03:15:39.877Z,6.30
2023-07-09T03:18:07.914Z,6.90
2023-07-09T03:20:34.690Z,7.50
2023-07-09T03:23:01.420Z,6.33
2023-07-09T03:25:28.112Z,7.10
2023-07-09T03:27:54.795Z,6.10
2023-07-09T03:30:21.536Z,6.93
2023-07-09T03:32:48.292Z,6.20
2023-07-09T03:35:16.491Z,6.40
2023-07-09T03:37:43.198Z,6.57
2023-07-09T03:40:11.589Z,6.70
2023-07-09T03:42:38.292Z,6.07
2023-07-09T03:45:05.822Z,6.50
2023-07-09T03:47:32.607Z,7.13
2023-07-09T03:49:59.339Z,7.40
2023-07-09T03:52:27.404Z,6.80
2023-07-09T03:54:54.122Z,7.53
2023-07-09T03:57:20.984Z,5.60
2023-07-09T03:59:47.683Z,6.00
2023-07-09T04:02:14.423Z,6.47
2023-07-09T04:04:41.137Z,5.97
2023-07-09T04:07:07.878Z,6.33
2023-07-09T04:09:36.049Z,6.27
2023-07-09T04:12:03.293Z,7.50
2023-07-09T04:14:30.175Z,7.50
2023-07-09T04:16:56.874Z,7.97
2023-07-09T04:19:23.589Z,8.50
2023-07-09T04:21:50.368Z,6.97
2023-07-09T04:24:18.690Z,6.37
2023-07-09T04:26:47.357Z,6.97
2023-07-09T04:29:14.773Z,5.03
2023-07-09T04:31:42.074Z,7.00
2023-07-09T04:34:09.307Z,5.33
2023-07-09T04:36:36.029Z,7.30
2023-07-09T04:39:02.713Z,7.60
2023-07-09T04:41:29.405Z,7.40
2023-07-09T04:43:57.461Z,8.10
2023-07-09T04:46:24.359Z,7.00
2023-07-09T04:48:51.088Z,7.37
2023-07-09T04:51:17.783Z,7.50
2023-07-09T04:53:45.018Z,6.90
2023-07-09T04:56:11.809Z,8.33
2023-07-09T04:58:38.493Z,8.13
2023-07-09T05:01:06.561Z,7.73
2023-07-09T05:03:33.322Z,8.10
2023-07-09T05:06:00.075Z,7.30
2023-07-09T05:08:26.998Z,7.47
2023-07-09T05:10:53.789Z,7.93
2023-07-09T05:13:20.586Z,6.63
2023-07-09T05:15:48.206Z,6.60
2023-07-09T05:18:17.254Z,5.97
2023-07-09T05:20:44.436Z,6.27
2023-07-09T05:23:11.933Z,6.23
2023-07-09T05:25:38.650Z,6.10
2023-07-09T05:28:06.219Z,6.63
2023-07-09T05:30:33.104Z,6.63
2023-07-09T05:32:59.910Z,6.20
2023-07-09T05:35:28.847Z,7.80
2023-07-09T05:37:56.087Z,6.20
2023-07-09T05:40:23.229Z,6.50
2023-07-09T05:42:50.040Z,6.67
2023-07-09T05:45:17.061Z,6.50
2023-07-09T05:47:43.784Z,7.00
2023-07-09T05:50:10.872Z,6.30
2023-07-09T05:52:38.908Z,6.63
2023-07-09T05:55:06.745Z,7.93
2023-07-09T05:57:33.464Z,8.03
2023-07-09T06:00:00.213Z,8.23
2023-07-09T06:02:27.045Z,7.00
2023-07-09T06:04:53.815Z,7.37
2023-07-09T06:07:20.548Z,7.37
2023-07-09T06:09:48.791Z,7.97
2023-07-09T06:12:15.557Z,9.17
2023-07-09T06:14:42.619Z,7.73
2023-07-09T06:17:09.529Z,7.80
2023-07-09T06:19:36.307Z,6.50
2023-07-09T06:22:03.132Z,8.27
2023-07-09T06:24:29.928Z,7.13
2023-07-09T06:26:57.968Z,7.97
2023-07-09T06:29:24.919Z,9.00
2023-07-09T06:31:51.835Z,8.40
2023-07-09T06:34:18.809Z,6.57
2023-07-09T06:36:45.556Z,8.83
2023-07-09T06:39:12.413Z,8.47
2023-07-09T06:41:39.174Z,7.00
2023-07-09T06:44:08.026Z,7.60
2023-07-09T06:46:35.012Z,9.10
2023-07-09T06:49:02.061Z,8.80
2023-07-09T06:51:28.819Z,7.50
2023-07-09T06:53:55.551Z,8.33
2023-07-09T06:56:22.809Z,8.40
2023-07-09T06:58:49.569Z,9.03
2023-07-09T07:01:19.841Z,8.60
2023-07-09T07:03:48.272Z,8.10
2023-07-09T07:06:15.042Z,9.03
2023-07-09T07:08:41.754Z,8.57
2023-07-09T07:11:08.752Z,8.33
2023-07-09T07:13:36.938Z,8.27
2023-07-09T07:16:04.248Z,9.93
2023-07-09T07:18:32.541Z,8.30
2023-07-09T07:20:59.460Z,8.77
2023-07-09T07:23:26.203Z,8.13
2023-07-09T07:25:52.975Z,9.37
2023-07-09T07:28:19.734Z,9.50
2023-07-09T07:30:46.483Z,8.77
2023-07-09T07:33:15.408Z,9.47
2023-07-09T07:36:06.196Z,8.73
2023-07-09T07:38:30.095Z,9.53
2023-07-09T07:40:56.810Z,9.20
2023-07-09T07:43:23.671Z,9.10
2023-07-09T07:45:50.433Z,9.23
2023-07-09T07:48:17.191Z,8.10
2023-07-09T07:50:46.017Z,8.80
2023-07-09T07:53:12.885Z,9.60
2023-07-09T07:55:39.563Z,8.00
2023-07-09T07:58:06.339Z,9.60
2023-07-09T08:00:33.314Z,8.13
2023-07-09T08:03:00.067Z,9.00
2023-07-09T08:05:27.233Z,8.50
2023-07-09T08:07:55.333Z,8.70
2023-07-09T08:10:22.040Z,8.43
2023-07-09T08:12:48.815Z,8.60
2023-07-09T08:15:15.649Z,8.30
2023-07-09T08:17:42.484Z,9.13
2023-07-09T08:20:10.983Z,8.20
2023-07-09T08:22:39.827Z,8.43
2023-07-09T08:25:09.624Z,9.10
2023-07-09T08:27:36.328Z,9.03
2023-07-09T08:30:03.169Z,9.10
2023-07-09T08:32:29.908Z,8.80
2023-07-09T08:35:29.663Z,9.10
2023-07-09T08:37:43.366Z,8.37
2023-07-09T08:40:14.288Z,8.00
2023-07-09T08:42:55.532Z,8.40
2023-07-09T08:45:36.587Z,8.70
2023-07-09T08:48:08.031Z,7.97
2023-07-09T08:50:39.473Z,8.80
2023-07-09T08:53:12.949Z,7.90
2023-07-09T08:55:41.361Z,8.10
2023-07-09T08:58:15.231Z,6.80
2023-07-09T09:00:49.431Z,8.17
2023-07-09T09:03:32.384Z,8.40
2023-07-09T09:05:59.109Z,8.20
2023-07-09T09:08:36.428Z,8.73
2023-07-09T09:11:15.161Z,8.43
2023-07-09T09:13:42.313Z,9.70
2023-07-09T09:16:18.454Z,8.33
2023-07-09T09:18:47.246Z,9.47
2023-07-09T09:21:18.384Z,7.97
2023-07-09T09:23:49.630Z,7.57
2023-07-09T09:26:21.636Z,8.20
2023-07-09T09:28:48.379Z,8.43
2023-07-09T09:31:17.265Z,7.10
2023-07-09T09:33:45.893Z,9.30
2023-07-09T09:36:17.824Z,7.40
2023-07-09T09:38:44.667Z,7.27
2023-07-09T09:41:15.084Z,8.30
2023-07-09T09:43:46.444Z,8.40
2023-07-09T09:46:19.065Z,7.40
2023-07-09T09:48:47.541Z,8.20
2023-07-09T09:51:14.952Z,7.33
2023-07-09T09:53:45.986Z,8.10
2023-07-09T09:56:17.986Z,7.40
2023-07-09T09:58:46.166Z,7.90
2023-07-09T10:01:16.661Z,7.60
2023-07-09T10:03:43.825Z,7.90
2023-07-09T10:06:15.909Z,7.83
2023-07-09T10:08:53.267Z,6.73
2023-07-09T10:11:25.604Z,6.47
2023-07-09T10:14:01.228Z,7.50
2023-07-09T10:16:33.570Z,7.70
2023-07-09T10:19:09.362Z,7.10
2023-07-09T10:21:43.971Z,7.10
2023-07-09T10:24:26.153Z,7.37
2023-07-09T10:27:01.025Z,7.07
2023-07-09T10:30:01.681Z,6.47
2023-07-09T10:32:48.261Z,6.60
2023-07-09T10:35:21.653Z,6.90
2023-07-09T10:38:00.901Z,6.70
2023-07-09T10:40:34.530Z,6.40
2023-07-09T10:43:03.760Z,6.50
2023-07-09T10:45:37.317Z,6.47
2023-07-09T10:48:10.453Z,6.50
2023-07-09T10:50:41.691Z,6.60
2023-07-09T10:53:15.033Z,6.30
2023-07-09T10:55:48.650Z,6.00
2023-07-09T10:58:24.419Z,6.07
2023-07-09T11:00:53.029Z,5.97
2023-07-09T11:03:23.095Z,6.30
2023-07-09T11:05:51.122Z,6.23
2023-07-09T11:08:22.594Z,6.40
2023-07-09T11:10:52.818Z,6.10
2023-07-09T11:13:35.996Z,6.60
2023-07-09T11:16:18.672Z,6.10
2023-07-09T11:18:55.789Z,5.70
2023-07-09T11:21:22.574Z,6.20
2023-07-09T11:23:52.030Z,5.80
2023-07-09T11:26:24.903Z,6.50
2023-07-09T11:28:53.602Z,6.57
2023-07-09T11:31:25.358Z,5.90
2023-07-09T11:34:02.233Z,6.30
2023-07-09T11:36:30.895Z,6.00
2023-07-09T11:38:57.616Z,5.93
2023-07-09T11:41:40.793Z,5.80
2023-07-09T11:44:17.612Z,5.30
2023-07-09T11:46:59.838Z,6.67
2023-07-09T11:49:33.385Z,6.20
2023-07-09T11:52:06.187Z,5.90
2023-07-09T11:54:36.037Z,5.90
2023-07-09T11:57:03.589Z,6.83
2023-07-09T11:59:30.665Z,6.77
2023-07-09T12:01:59.161Z,6.40
2023-07-09T12:04:33.501Z,6.20
2023-07-09T12:07:02.461Z,5.63
2023-07-09T12:09:37.939Z,5.63
2023-07-09T12:12:05.533Z,6.80
2023-07-09T12:14:32.307Z,6.03
2023-07-09T12:17:00.383Z,5.70
2023-07-09T12:19:31.313Z,6.30
2023-07-09T12:21:59.423Z,5.93
2023-07-09T12:24:27.987Z,5.43
2023-07-09T12:26:55.295Z,6.20
2023-07-09T12:29:25.636Z,6.90
2023-07-09T12:31:52.515Z,6.40
2023-07-09T12:34:20.653Z,6.17
2023-07-09T12:36:50.954Z,6.10
2023-07-09T12:39:24.564Z,6.30
2023-07-09T12:41:52.142Z,6.70
2023-07-09T12:44:20.937Z,6.20
2023-07-09T12:46:49.920Z,6.90
2023-07-09T12:49:26.200Z,6.03
2023-07-09T12:51:54.942Z,5.67
2023-07-09T12:54:22.357Z,5.63
2023-07-09T12:56:52.160Z,6.13
2023-07-09T12:59:21.634Z,5.97
2023-07-09T13:02:01.404Z,5.73
2023-07-09T13:04:33.819Z,6.70
2023-07-09T13:07:00.528Z,6.13
2023-07-09T13:09:28.341Z,6.47
2023-07-09T13:11:55.343Z,5.67
2023-07-09T13:14:25.717Z,6.47
2023-07-09T13:16:52.923Z,5.80
2023-07-09T13:19:20.227Z,6.77
2023-07-09T13:21:48.282Z,5.77
2023-07-09T13:24:23.068Z,6.43
2023-07-09T13:26:49.818Z,6.10
2023-07-09T13:29:18.623Z,6.30
2023-07-09T13:31:45.543Z,5.40
2023-07-09T13:34:20.587Z,6.43
2023-07-09T13:36:48.787Z,6.33
2023-07-09T13:39:16.261Z,6.07
2023-07-09T13:41:44.492Z,5.90
2023-07-09T13:44:13.749Z,6.23
2023-07-09T13:46:40.562Z,6.87
2023-07-09T13:49:11.198Z,4.90
2023-07-09T13:51:38.290Z,6.20
2023-07-09T13:54:15.933Z,7.00
2023-07-09T13:56:42.696Z,5.90
2023-07-09T13:59:14.777Z,7.33
2023-07-09T14:01:41.763Z,6.80
2023-07-09T14:04:11.723Z,6.27
2023-07-09T14:06:38.430Z,5.70
2023-07-09T14:09:07.243Z,6.43
2023-07-09T14:11:34.008Z,6.10
2023-07-09T14:14:00.856Z,5.87
2023-07-09T14:16:27.678Z,5.73
2023-07-09T14:18:54.414Z,6.07
2023-07-09T14:21:25.416Z,5.73
2023-07-09T14:23:52.150Z,6.23
2023-07-09T14:26:20.669Z,6.77
2023-07-09T14:28:47.372Z,5.80
2023-07-09T14:31:22.860Z,6.40
2023-07-09T14:33:49.719Z,6.70
2023-07-09T14:36:16.416Z,5.70
2023-07-09T14:38:43.198Z,6.87
2023-07-09T14:41:24.411Z,7.03
2023-07-09T14:43:51.211Z,6.77
2023-07-09T14:46:18.035Z,6.60
2023-07-09T14:48:44.762Z,6.60
2023-07-09T14:51:14.835Z,7.17
2023-07-09T14:53:41.675Z,6.53
2023-07-09T14:56:08.518Z,6.40
2023-07-09T14:58:36.568Z,6.47
2023-07-09T15:01:03.681Z,6.17
2023-07-09T15:03:30.705Z,6.63
2023-07-09T15:05:57.385Z,6.80
2023-07-09T15:08:27.439Z,6.23
2023-07-09T15:10:55.502Z,6.27
2023-07-09T15:13:29.911Z,7.13
2023-07-09T15:15:57.981Z,6.40
2023-07-09T15:18:24.794Z,6.17
2023-07-09T15:20:53.920Z,7.07
2023-07-09T15:23:21.358Z,6.57
2023-07-09T15:25:48.038Z,6.87
2023-07-09T15:28:14.767Z,6.83
2023-07-09T15:30:41.865Z,7.30
2023-07-09T15:33:16.212Z,6.60
2023-07-09T15:35:44.714Z,6.80
2023-07-09T15:38:31.088Z,6.73
2023-07-09T15:40:58.657Z,7.13
2023-07-09T15:43:25.921Z,6.83
2023-07-09T15:45:55.252Z,6.60
2023-07-09T15:48:27.108Z,6.80
2023-07-09T15:50:54.019Z,6.20
2023-07-09T15:53:21.877Z,7.27
2023-07-09T15:55:48.931Z,7.30
2023-07-09T15:58:22.374Z,6.70
2023-07-09T16:00:50.370Z,7.37
2023-07-09T16:03:21.896Z,6.10
2023-07-09T16:05:51.252Z,7.30
2023-07-09T16:08:18.307Z,6.77
2023-07-09T16:10:45.122Z,6.80
2023-07-09T16:13:20.299Z,6.90
2023-07-09T16:15:47.348Z,6.63
2023-07-09T16:18:14.234Z,6.17
2023-07-09T16:20:40.977Z,7.00
2023-07-09T16:23:17.086Z,6.43
2023-07-09T16:25:44.023Z,6.83
2023-07-09T16:28:14.297Z,6.60
2023-07-09T16:30:41.016Z,6.50
2023-07-09T16:33:07.873Z,6.80
2023-07-09T16:35:34.800Z,11.40
2023-07-09T16:38:01.601Z,8.60
2023-07-09T16:40:31.908Z,6.57
2023-07-09T16:42:59.868Z,6.80
2023-07-09T16:45:27.749Z,9.90
2023-07-09T16:47:54.928Z,6.07
2023-07-09T16:50:23.117Z,6.60
2023-07-09T16:52:51.085Z,6.63
2023-07-09T16:55:19.372Z,7.73
2023-07-09T16:57:53.044Z,7.57
2023-07-09T17:00:26.628Z,7.40
2023-07-09T17:02:53.509Z,6.63
2023-07-09T17:05:24.411Z,6.90
2023-07-09T17:07:51.665Z,7.53
2023-07-09T17:10:19.304Z,7.27
2023-07-09T17:12:51.647Z,7.60
2023-07-09T17:15:22.939Z,7.73
2023-07-09T17:17:50.976Z,7.77
2023-07-09T17:20:18.268Z,8.17
2023-07-09T17:22:45.952Z,8.20
2023-07-09T17:25:25.568Z,8.17
2023-07-09T17:27:53.684Z,7.47
2023-07-09T17:30:20.576Z,8.23
2023-07-09T17:32:47.765Z,6.77
2023-07-09T17:35:14.801Z,7.20
2023-07-09T17:37:44.731Z,6.90
2023-07-09T17:40:25.014Z,7.80
2023-07-09T17:43:12.935Z,7.53
2023-07-09T17:45:39.786Z,7.00
2023-07-09T17:48:14.512Z,7.00
2023-07-09T17:50:41.417Z,7.23
2023-07-09T17:53:15.334Z,7.20
2023-07-09T17:55:42.118Z,7.43
2023-07-09T17:58:12.336Z,7.10
2023-07-09T18:00:39.061Z,7.87
2023-07-09T18:03:09.394Z,7.40
2023-07-09T18:05:37.237Z,8.33
2023-07-09T18:08:06.343Z,7.43
2023-07-09T18:10:35.253Z,7.80
2023-07-09T18:13:04.620Z,7.77
2023-07-09T18:15:34.152Z,7.67
2023-07-09T18:18:01.141Z,7.60
2023-07-09T18:20:28.143Z,7.60
2023-07-09T18:22:54.858Z,7.97
2023-07-09T18:25:22.376Z,8.03
2023-07-09T18:27:52.040Z,9.10
2023-07-09T18:30:21.096Z,7.90
2023-07-09T18:32:50.422Z,8.20
2023-07-09T18:35:22.985Z,9.00
2023-07-09T18:37:51.271Z,9.00
2023-07-09T18:40:18.200Z,8.07
2023-07-09T18:42:45.163Z,8.40
2023-07-09T18:45:15.795Z,8.13
2023-07-09T18:47:43.092Z,8.07
2023-07-09T18:50:15.171Z,8.03
2023-07-09T18:52:41.948Z,8.30
2023-07-09T18:55:17.035Z,8.63
2023-07-09T18:57:43.756Z,8.40
2023-07-09T19:00:12.005Z,8.77
2023-07-09T19:02:40.351Z,7.73
2023-07-09T19:05:15.889Z,8.20
2023-07-09T19:07:42.562Z,8.57
2023-07-09T19:10:15.140Z,9.43
2023-07-09T19:12:47.748Z,9.00
2023-07-09T19:15:15.064Z,8.80
2023-07-09T19:17:42.167Z,8.20
2023-07-09T19:20:21.035Z,8.73
2023-07-09T19:22:48.552Z,7.93
2023-07-09T19:25:17.630Z,9.27
2023-07-09T19:27:44.590Z,9.30
2023-07-09T19:30:12.815Z,8.40
2023-07-09T19:32:41.911Z,8.57
2023-07-09T19:35:16.078Z,8.03
2023-07-09T19:37:42.748Z,8.80
2023-07-09T19:40:17.530Z,9.00
2023-07-09T19:42:44.371Z,8.50
2023-07-09T19:45:12.623Z,8.87
2023-07-09T19:47:39.892Z,8.83
2023-07-09T19:50:20.480Z,8.90
2023-07-09T19:52:47.178Z,8.67
2023-07-09T19:55:17.947Z,8.60
2023-07-09T19:57:44.661Z,8.00
2023-07-09T20:00:12.311Z,8.50
2023-07-09T20:02:39.208Z,8.90
2023-07-09T20:05:14.581Z,9.80
2023-07-09T20:07:42.613Z,9.03
2023-07-09T20:10:10.211Z,9.00
2023-07-09T20:12:37.262Z,9.90
2023-07-09T20:15:17.137Z,8.47
2023-07-09T20:17:44.086Z,8.63
2023-07-09T20:20:12.088Z,8.20
2023-07-09T20:22:39.046Z,9.00
2023-07-09T20:25:18.628Z,8.97
2023-07-09T20:27:45.375Z,9.00
2023-07-09T20:30:14.194Z,8.20
2023-07-09T20:32:41.623Z,8.70
2023-07-09T20:35:16.918Z,9.00
2023-07-09T20:37:43.696Z,8.77
2023-07-09T20:40:15.030Z,8.57
2023-07-09T20:42:42.259Z,9.00
2023-07-09T20:45:18.981Z,8.20
2023-07-09T20:47:46.478Z,8.23
2023-07-09T20:50:15.021Z,9.20
2023-07-09T20:52:41.810Z,8.50
2023-07-09T20:55:13.694Z,8.60
2023-07-09T20:57:41.368Z,8.50
2023-07-09T21:00:14.213Z,9.57
2023-07-09T21:02:40.998Z,9.50
2023-07-09T21:05:08.130Z,8.60
2023-07-09T21:07:34.977Z,8.23
2023-07-09T21:10:01.921Z,8.83
2023-07-09T21:12:29.912Z,9.20
2023-07-09T21:14:56.647Z,8.63
2023-07-09T21:17:24.872Z,7.77
2023-07-09T21:19:52.091Z,8.47
2023-07-09T21:22:18.981Z,7.80
2023-07-09T21:24:48.676Z,8.10
2023-07-09T21:27:15.496Z,8.70
2023-07-09T21:29:43.725Z,7.77
2023-07-09T21:32:16.710Z,9.73
2023-07-09T21:34:43.596Z,9.17
2023-07-09T21:37:17.037Z,9.03
2023-07-09T21:39:44.204Z,8.67
2023-07-09T21:42:11.124Z,8.60
2023-07-09T21:44:37.828Z,8.50
2023-07-09T21:47:08.069Z,9.43
2023-07-09T21:49:38.169Z,9.23
2023-07-09T21:52:14.233Z,9.13
2023-07-09T21:55:10.718Z,9.00
2023-07-09T21:57:27.601Z,9.40
2023-07-09T21:59:54.300Z,11.43
2023-07-09T22:02:29.581Z,9.70
2023-07-09T22:04:56.319Z,9.80
2023-07-09T22:07:24.932Z,9.50
2023-07-09T22:09:53.748Z,12.43
2023-07-09T22:12:21.242Z,10.80
2023-07-09T22:14:49.054Z,10.60
2023-07-09T22:17:15.861Z,10.50
2023-07-09T22:19:45.374Z,11.20
2023-07-09T22:22:12.690Z,10.17
2023-07-09T22:24:40.387Z,11.13
2023-07-09T22:27:10.758Z,11.80
2023-07-09T22:29:37.481Z,10.37
2023-07-09T22:32:05.249Z,11.00
2023-07-09T22:34:32.172Z,10.13
2023-07-09T22:37:00.204Z,9.33
2023-07-09T22:39:26.947Z,9.63
2023-07-09T22:41:53.665Z,10.40
2023-07-09T22:44:20.355Z,11.03
2023-07-09T22:46:47.111Z,9.80
2023-07-09T22:49:15.228Z,9.90
2023-07-09T22:51:42.251Z,10.83
2023-07-09T22:54:11.909Z,10.87
2023-07-09T22:56:38.643Z,10.40
2023-07-09T22:59:05.391Z,10.03
2023-07-09T23:01:32.561Z,11.23
2023-07-09T23:03:59.430Z,10.73
2023-07-09T23:06:28.020Z,11.07
2023-07-09T23:08:56.407Z,10.60
2023-07-09T23:11:27.757Z,9.60
2023-07-09T23:13:55.053Z,9.20
2023-07-09T23:16:24.535Z,8.37
2023-07-09T23:18:51.995Z,8.60
2023-07-09T23:21:20.323Z,8.60
2023-07-09T23:23:47.147Z,8.67
2023-07-09T23:26:13.956Z,8.17
2023-07-09T23:28:42.094Z,8.50
2023-07-09T23:31:23.392Z,8.30
2023-07-09T23:33:50.122Z,7.97
2023-07-09T23:36:16.945Z,7.60
2023-07-09T23:38:43.648Z,8.10
2023-07-09T23:41:17.811Z,7.20
2023-07-09T23:43:46.209Z,8.00
2023-07-09T23:46:13.076Z,7.73
2023-07-09T23:48:42.249Z,8.30
2023-07-09T23:51:11.528Z,8.70
2023-07-09T23:53:38.402Z,8.40
2023-07-09T23:56:19.871Z,7.80
2023-07-09T23:58:47.955Z,9.07
